sensor_id;sensor_type;location;lat;lon;timestamp;pressure;altitude;pressure_sealevel;temperature;humidity
18784;BME280;9520;50.954;6.968;2023-01-30T00:00:21;101442.91;;;10.69;49.99
18784;BME280;9520;50.954;6.968;2023-01-30T00:00:43;101442.00;;;10.71;49.92
18784;BME280;9520;50.954;6.968;2023-01-30T00:01:06;101452.56;;;10.76;49.93
18784;BME280;9520;50.954;6.968;2023-01-30T00:01:33;101449.03;;;10.80;49.91
18784;BME280;9520;50.954;6.968;2023-01-30T00:01:55;101447.25;;;10.85;49.77
18784;BME280;9520;50.954;6.968;2023-01-30T00:02:18;101445.47;;;10.89;49.72
18784;BME280;9520;50.954;6.968;2023-01-30T00:02:40;101439.31;;;10.88;49.65
18784;BME280;9520;50.954;6.968;2023-01-30T00:03:01;101433.16;;;10.92;49.48
18784;BME280;9520;50.954;6.968;2023-01-30T00:03:23;101440.19;;;10.93;49.48
18784;BME280;9520;50.954;6.968;2023-01-30T00:03:47;101435.75;;;10.97;49.50
18784;BME280;9520;50.954;6.968;2023-01-30T00:04:10;101436.66;;;10.99;49.53
18784;BME280;9520;50.954;6.968;2023-01-30T00:04:33;101440.13;;;11.04;49.46
18784;BME280;9520;50.954;6.968;2023-01-30T00:04:54;101446.28;;;11.06;49.32
18784;BME280;9520;50.954;6.968;2023-01-30T00:05:16;101438.38;;;11.04;49.38
18784;BME280;9520;50.954;6.968;2023-01-30T00:05:38;101439.25;;;11.03;49.42
18784;BME280;9520;50.954;6.968;2023-01-30T00:06:01;101435.75;;;10.98;49.38
18784;BME280;9520;50.954;6.968;2023-01-30T00:06:23;101424.34;;;10.93;49.40
18784;BME280;9520;50.954;6.968;2023-01-30T00:06:45;101415.56;;;10.93;49.79
18784;BME280;9520;50.954;6.968;2023-01-30T00:07:07;101427.03;;;10.82;49.79
18784;BME280;9520;50.954;6.968;2023-01-30T00:07:28;101426.16;;;10.82;49.97
18784;BME280;9520;50.954;6.968;2023-01-30T00:07:51;101427.88;;;10.88;49.95
18784;BME280;9520;50.954;6.968;2023-01-30T00:08:13;101427.91;;;10.83;50.03
18784;BME280;9520;50.954;6.968;2023-01-30T00:08:35;101426.97;;;10.92;49.95
18784;BME280;9520;50.954;6.968;2023-01-30T00:08:57;101434.00;;;10.96;49.87
18784;BME280;9520;50.954;6.968;2023-01-30T00:09:20;101433.97;;;11.03;49.63
18784;BME280;9520;50.954;6.968;2023-01-30T00:09:42;101419.03;;;11.04;49.73
18784;BME280;9520;50.954;6.968;2023-01-30T00:10:04;101426.03;;;11.06;49.63
18784;BME280;9520;50.954;6.968;2023-01-30T00:10:26;101427.81;;;11.03;49.65
18784;BME280;9520;50.954;6.968;2023-01-30T00:10:49;101411.97;;;11.04;49.57
18784;BME280;9520;50.954;6.968;2023-01-30T00:11:12;101420.75;;;11.06;49.60
18784;BME280;9520;50.954;6.968;2023-01-30T00:11:35;101415.47;;;11.09;49.49
18784;BME280;9520;50.954;6.968;2023-01-30T00:11:58;101413.72;;;11.05;49.52
18784;BME280;9520;50.954;6.968;2023-01-30T00:12:20;101409.31;;;11.07;49.64
18784;BME280;9520;50.954;6.968;2023-01-30T00:12:41;101410.22;;;11.03;49.75
18784;BME280;9520;50.954;6.968;2023-01-30T00:13:03;101412.84;;;11.06;49.76
18784;BME280;9520;50.954;6.968;2023-01-30T00:13:26;101406.72;;;10.98;49.81
18784;BME280;9520;50.954;6.968;2023-01-30T00:13:50;101405.84;;;10.98;49.75
18784;BME280;9520;50.954;6.968;2023-01-30T00:14:12;101404.94;;;11.03;49.74
18784;BME280;9520;50.954;6.968;2023-01-30T00:14:34;101398.78;;;11.04;49.70
18784;BME280;9520;50.954;6.968;2023-01-30T00:14:56;101397.03;;;11.00;49.87
18784;BME280;9520;50.954;6.968;2023-01-30T00:15:18;101394.41;;;10.97;49.86
18784;BME280;9520;50.954;6.968;2023-01-30T00:15:41;101388.25;;;10.98;49.87
18784;BME280;9520;50.954;6.968;2023-01-30T00:16:03;101389.09;;;11.03;49.76
18784;BME280;9520;50.954;6.968;2023-01-30T00:16:25;101386.47;;;11.00;49.84
18784;BME280;9520;50.954;6.968;2023-01-30T00:16:48;101383.03;;;10.89;50.04
18784;BME280;9520;50.954;6.968;2023-01-30T00:17:10;101377.78;;;10.81;50.21
18784;BME280;9520;50.954;6.968;2023-01-30T00:17:32;101386.56;;;10.83;50.25
18784;BME280;9520;50.954;6.968;2023-01-30T00:17:53;101383.03;;;10.86;50.40
18784;BME280;9520;50.954;6.968;2023-01-30T00:18:16;101382.16;;;10.89;50.21
18784;BME280;9520;50.954;6.968;2023-01-30T00:18:40;101387.38;;;10.96;50.23
18784;BME280;9520;50.954;6.968;2023-01-30T00:19:03;101378.56;;;10.97;50.10
18784;BME280;9520;50.954;6.968;2023-01-30T00:19:26;101373.25;;;11.00;50.02
18784;BME280;9520;50.954;6.968;2023-01-30T00:19:48;101389.09;;;11.03;49.95
18784;BME280;9520;50.954;6.968;2023-01-30T00:20:11;101385.59;;;10.97;49.99
18784;BME280;9520;50.954;6.968;2023-01-30T00:20:36;101383.00;;;10.91;50.08
18784;BME280;9520;50.954;6.968;2023-01-30T00:21:01;101397.09;;;10.87;50.27
18784;BME280;9520;50.954;6.968;2023-01-30T00:21:23;101385.72;;;10.77;50.43
18784;BME280;9520;50.954;6.968;2023-01-30T00:21:45;101396.28;;;10.80;50.54
18784;BME280;9520;50.954;6.968;2023-01-30T00:22:06;101400.66;;;10.78;50.62
18784;BME280;9520;50.954;6.968;2023-01-30T00:22:29;101396.25;;;10.77;50.81
18784;BME280;9520;50.954;6.968;2023-01-30T00:22:51;101394.50;;;10.85;50.65
18784;BME280;9520;50.954;6.968;2023-01-30T00:23:21;101391.81;;;10.87;50.44
18784;BME280;9520;50.954;6.968;2023-01-30T00:23:43;101395.38;;;10.84;50.61
18784;BME280;9520;50.954;6.968;2023-01-30T00:24:07;101396.25;;;10.85;50.50
18784;BME280;9520;50.954;6.968;2023-01-30T00:24:28;101395.31;;;10.92;50.45
18784;BME280;9520;50.954;6.968;2023-01-30T00:24:51;101391.88;;;10.77;50.65
18784;BME280;9520;50.954;6.968;2023-01-30T00:25:12;101388.34;;;10.80;50.61
18784;BME280;9520;50.954;6.968;2023-01-30T00:25:34;101378.69;;;10.79;50.75
18784;BME280;9520;50.954;6.968;2023-01-30T00:25:58;101381.28;;;10.90;50.54
18784;BME280;9520;50.954;6.968;2023-01-30T00:26:19;101381.22;;;10.97;50.38
18784;BME280;9520;50.954;6.968;2023-01-30T00:26:41;101375.91;;;11.03;50.27
18784;BME280;9520;50.954;6.968;2023-01-30T00:27:03;101383.88;;;10.93;50.30
18784;BME280;9520;50.954;6.968;2023-01-30T00:27:26;101385.66;;;10.86;50.35
18784;BME280;9520;50.954;6.968;2023-01-30T00:27:49;101385.66;;;10.86;50.51
18784;BME280;9520;50.954;6.968;2023-01-30T00:28:11;101383.03;;;10.81;50.73
18784;BME280;9520;50.954;6.968;2023-01-30T00:28:33;101388.38;;;10.74;50.83
18784;BME280;9520;50.954;6.968;2023-01-30T00:28:55;101391.91;;;10.74;51.05
18784;BME280;9520;50.954;6.968;2023-01-30T00:29:18;101384.84;;;10.79;50.98
18784;BME280;9520;50.954;6.968;2023-01-30T00:29:40;101385.66;;;10.86;50.87
18784;BME280;9520;50.954;6.968;2023-01-30T00:30:04;101393.56;;;10.92;50.71
18784;BME280;9520;50.954;6.968;2023-01-30T00:30:28;101390.00;;;10.99;50.61
18784;BME280;9520;50.954;6.968;2023-01-30T00:30:52;101390.91;;;10.94;50.61
18784;BME280;9520;50.954;6.968;2023-01-30T00:31:17;101380.31;;;11.04;50.54
18784;BME280;9520;50.954;6.968;2023-01-30T00:31:38;101382.88;;;11.10;50.35
18784;BME280;9520;50.954;6.968;2023-01-30T00:32:01;101389.94;;;11.14;50.30
18784;BME280;9520;50.954;6.968;2023-01-30T00:32:22;101391.63;;;11.21;50.09
18784;BME280;9520;50.954;6.968;2023-01-30T00:32:46;101387.19;;;11.26;49.80
18784;BME280;9520;50.954;6.968;2023-01-30T00:33:09;101384.53;;;11.31;49.80
18784;BME280;9520;50.954;6.968;2023-01-30T00:33:31;101387.19;;;11.30;49.80
18784;BME280;9520;50.954;6.968;2023-01-30T00:33:52;101386.31;;;11.26;49.79
18784;BME280;9520;50.954;6.968;2023-01-30T00:34:18;101388.06;;;11.29;49.76
18784;BME280;9520;50.954;6.968;2023-01-30T00:34:40;101374.00;;;11.28;49.76
18784;BME280;9520;50.954;6.968;2023-01-30T00:35:02;101381.00;;;11.31;49.72
18784;BME280;9520;50.954;6.968;2023-01-30T00:35:24;101382.75;;;11.30;49.78
18784;BME280;9520;50.954;6.968;2023-01-30T00:35:50;101386.25;;;11.35;49.73
18784;BME280;9520;50.954;6.968;2023-01-30T00:36:12;101382.72;;;11.38;49.67
18784;BME280;9520;50.954;6.968;2023-01-30T00:36:34;101382.69;;;11.41;49.52
18784;BME280;9520;50.954;6.968;2023-01-30T00:36:56;101375.66;;;11.41;49.46
18784;BME280;9520;50.954;6.968;2023-01-30T00:37:29;101385.28;;;11.47;49.21
18784;BME280;9520;50.954;6.968;2023-01-30T00:37:51;101371.22;;;11.45;49.42
18784;BME280;9520;50.954;6.968;2023-01-30T00:38:13;101374.72;;;11.48;49.43
18784;BME280;9520;50.954;6.968;2023-01-30T00:38:35;101372.03;;;11.51;49.31
18784;BME280;9520;50.954;6.968;2023-01-30T00:39:00;101381.72;;;11.51;49.16
18784;BME280;9520;50.954;6.968;2023-01-30T00:39:22;101383.47;;;11.55;49.18
18784;BME280;9520;50.954;6.968;2023-01-30T00:39:44;101383.44;;;11.56;49.12
18784;BME280;9520;50.954;6.968;2023-01-30T00:40:07;101381.69;;;11.55;49.22
18784;BME280;9520;50.954;6.968;2023-01-30T00:40:31;101381.69;;;11.55;49.16
18784;BME280;9520;50.954;6.968;2023-01-30T00:40:53;101378.13;;;11.59;49.09
18784;BME280;9520;50.954;6.968;2023-01-30T00:41:15;101373.72;;;11.63;48.97
18784;BME280;9520;50.954;6.968;2023-01-30T00:41:39;101365.00;;;11.50;49.13
18784;BME280;9520;50.954;6.968;2023-01-30T00:42:19;101369.44;;;11.48;49.39
18784;BME280;9520;50.954;6.968;2023-01-30T00:43:00;101365.03;;;11.47;49.29
18784;BME280;9520;50.954;6.968;2023-01-30T00:43:40;101367.69;;;11.47;49.16
18784;BME280;9520;50.954;6.968;2023-01-30T00:44:20;101367.72;;;11.40;49.31
18784;BME280;9520;50.954;6.968;2023-01-30T00:45:02;101366.00;;;11.36;49.73
18784;BME280;9520;50.954;6.968;2023-01-30T00:45:43;101374.91;;;11.22;49.93
18784;BME280;9520;50.954;6.968;2023-01-30T00:46:26;101372.31;;;11.12;50.25
18784;BME280;9520;50.954;6.968;2023-01-30T00:47:08;101367.94;;;11.11;50.35
18784;BME280;9520;50.954;6.968;2023-01-30T00:47:31;101365.25;;;11.17;50.18
18784;BME280;9520;50.954;6.968;2023-01-30T00:47:53;101368.78;;;11.16;50.26
18784;BME280;9520;50.954;6.968;2023-01-30T00:48:15;101368.84;;;11.08;50.35
18784;BME280;9520;50.954;6.968;2023-01-30T00:48:37;101366.25;;;10.96;50.78
18784;BME280;9520;50.954;6.968;2023-01-30T00:48:59;101359.34;;;10.80;51.11
18784;BME280;9520;50.954;6.968;2023-01-30T00:49:23;101361.13;;;10.69;51.29
18784;BME280;9520;50.954;6.968;2023-01-30T00:49:45;101369.03;;;10.75;51.20
18784;BME280;9520;50.954;6.968;2023-01-30T00:50:08;101358.41;;;10.82;51.18
18784;BME280;9520;50.954;6.968;2023-01-30T00:50:31;101356.66;;;10.83;51.20
18784;BME280;9520;50.954;6.968;2023-01-30T00:51:05;101364.50;;;10.98;51.02
18784;BME280;9520;50.954;6.968;2023-01-30T00:51:27;101357.44;;;11.02;51.03
18784;BME280;9520;50.954;6.968;2023-01-30T00:51:49;101365.28;;;11.11;50.77
18784;BME280;9520;50.954;6.968;2023-01-30T00:52:12;101355.56;;;11.16;50.61
18784;BME280;9520;50.954;6.968;2023-01-30T00:52:33;101357.34;;;11.18;50.45
18784;BME280;9520;50.954;6.968;2023-01-30T00:52:55;101359.03;;;11.27;50.26
18784;BME280;9520;50.954;6.968;2023-01-30T00:53:17;101355.50;;;11.30;50.10
18784;BME280;9520;50.954;6.968;2023-01-30T00:53:39;101350.25;;;11.23;50.25
18784;BME280;9520;50.954;6.968;2023-01-30T00:54:02;101353.75;;;11.29;50.04
18784;BME280;9520;50.954;6.968;2023-01-30T00:54:25;101359.03;;;11.25;50.15
18784;BME280;9520;50.954;6.968;2023-01-30T00:54:46;101352.88;;;11.30;50.02
18784;BME280;9520;50.954;6.968;2023-01-30T00:55:08;101357.25;;;11.27;50.08
18784;BME280;9520;50.954;6.968;2023-01-30T00:55:31;101359.06;;;11.22;50.18
18784;BME280;9520;50.954;6.968;2023-01-30T00:55:54;101348.63;;;11.04;50.62
18784;BME280;9520;50.954;6.968;2023-01-30T00:56:15;101351.28;;;11.03;50.61
18784;BME280;9520;50.954;6.968;2023-01-30T00:56:37;101353.91;;;11.03;50.68
18784;BME280;9520;50.954;6.968;2023-01-30T00:57:00;101352.13;;;11.08;50.61
18784;BME280;9520;50.954;6.968;2023-01-30T00:57:22;101361.78;;;11.15;50.66
18784;BME280;9520;50.954;6.968;2023-01-30T00:57:44;101355.63;;;11.10;50.61
18784;BME280;9520;50.954;6.968;2023-01-30T00:58:06;101362.63;;;11.15;50.55
18784;BME280;9520;50.954;6.968;2023-01-30T00:58:29;101367.84;;;11.21;50.32
18784;BME280;9520;50.954;6.968;2023-01-30T00:58:51;101358.16;;;11.25;50.38
18784;BME280;9520;50.954;6.968;2023-01-30T00:59:12;101359.00;;;11.30;50.25
18784;BME280;9520;50.954;6.968;2023-01-30T00:59:34;101362.50;;;11.31;50.29
18784;BME280;9520;50.954;6.968;2023-01-30T00:59:57;101359.00;;;11.35;50.09
18784;BME280;9520;50.954;6.968;2023-01-30T01:00:19;101354.56;;;11.37;49.95
18784;BME280;9520;50.954;6.968;2023-01-30T01:00:41;101353.66;;;11.39;49.90
18784;BME280;9520;50.954;6.968;2023-01-30T01:01:03;101347.50;;;11.39;49.94
18784;BME280;9520;50.954;6.968;2023-01-30T01:01:25;101358.09;;;11.34;49.95
18784;BME280;9520;50.954;6.968;2023-01-30T01:01:48;101353.75;;;11.25;50.42
18784;BME280;9520;50.954;6.968;2023-01-30T01:02:10;101350.25;;;11.22;50.20
18784;BME280;9520;50.954;6.968;2023-01-30T01:02:33;101349.34;;;11.26;50.19
18784;BME280;9520;50.954;6.968;2023-01-30T01:02:55;101346.69;;;11.27;50.17
18784;BME280;9520;50.954;6.968;2023-01-30T01:03:17;101345.78;;;11.30;50.13
18784;BME280;9520;50.954;6.968;2023-01-30T01:03:40;101352.78;;;11.37;50.06
18784;BME280;9520;50.954;6.968;2023-01-30T01:04:02;101342.19;;;11.40;50.06
18784;BME280;9520;50.954;6.968;2023-01-30T01:04:26;101343.06;;;11.41;49.91
18784;BME280;9520;50.954;6.968;2023-01-30T01:04:47;101343.94;;;11.44;49.81
18784;BME280;9520;50.954;6.968;2023-01-30T01:05:11;101336.88;;;11.46;49.91
18784;BME280;9520;50.954;6.968;2023-01-30T01:05:33;101335.09;;;11.48;49.75
18784;BME280;9520;50.954;6.968;2023-01-30T01:05:55;101335.09;;;11.48;49.75
18784;BME280;9520;50.954;6.968;2023-01-30T01:06:17;101327.13;;;11.50;49.60
18784;BME280;9520;50.954;6.968;2023-01-30T01:06:40;101329.78;;;11.51;49.56
18784;BME280;9520;50.954;6.968;2023-01-30T01:07:02;101325.38;;;11.53;49.53
18784;BME280;9520;50.954;6.968;2023-01-30T01:07:24;101326.44;;;11.30;49.90
18784;BME280;9520;50.954;6.968;2023-01-30T01:07:45;101325.72;;;11.09;50.57
18784;BME280;9520;50.954;6.968;2023-01-30T01:08:09;101334.47;;;11.14;50.51
18784;BME280;9520;50.954;6.968;2023-01-30T01:08:31;101321.28;;;11.14;50.50
18784;BME280;9520;50.954;6.968;2023-01-30T01:08:52;101326.56;;;11.14;50.62
18784;BME280;9520;50.954;6.968;2023-01-30T01:09:14;101335.38;;;11.15;50.66
18784;BME280;9520;50.954;6.968;2023-01-30T01:09:37;101329.28;;;11.02;50.95
18784;BME280;9520;50.954;6.968;2023-01-30T01:09:59;101336.34;;;10.96;51.12
18784;BME280;9520;50.954;6.968;2023-01-30T01:10:21;101334.63;;;10.95;51.05
18784;BME280;9520;50.954;6.968;2023-01-30T01:10:43;101336.38;;;10.94;51.20
18784;BME280;9520;50.954;6.968;2023-01-30T01:11:05;101330.19;;;10.97;51.21
18784;BME280;9520;50.954;6.968;2023-01-30T01:11:28;101329.31;;;10.99;51.15
18784;BME280;9520;50.954;6.968;2023-01-30T01:11:50;101331.00;;;11.06;50.97
18784;BME280;9520;50.954;6.968;2023-01-30T01:12:12;101333.59;;;11.14;50.93
18784;BME280;9520;50.954;6.968;2023-01-30T01:12:33;101328.31;;;11.11;50.73
18784;BME280;9520;50.954;6.968;2023-01-30T01:12:57;101328.31;;;11.12;50.82
18784;BME280;9520;50.954;6.968;2023-01-30T01:13:19;101325.69;;;11.14;50.77
18784;BME280;9520;50.954;6.968;2023-01-30T01:13:41;101330.06;;;11.19;50.69
18784;BME280;9520;50.954;6.968;2023-01-30T01:14:04;101337.94;;;11.24;50.65
18784;BME280;9520;50.954;6.968;2023-01-30T01:14:28;101340.56;;;11.21;50.62
18784;BME280;9520;50.954;6.968;2023-01-30T01:14:50;101334.41;;;11.23;50.53
18784;BME280;9520;50.954;6.968;2023-01-30T01:15:13;101335.25;;;11.27;50.25
18784;BME280;9520;50.954;6.968;2023-01-30T01:15:35;101343.19;;;11.27;50.39
18784;BME280;9520;50.954;6.968;2023-01-30T01:15:56;101336.06;;;11.35;50.32
18784;BME280;9520;50.954;6.968;2023-01-30T01:16:20;101334.31;;;11.39;50.15
18784;BME280;9520;50.954;6.968;2023-01-30T01:16:42;101345.72;;;11.42;50.11
18784;BME280;9520;50.954;6.968;2023-01-30T01:17:04;101336.03;;;11.41;49.96
18784;BME280;9520;50.954;6.968;2023-01-30T01:17:26;101340.50;;;11.35;50.24
18784;BME280;9520;50.954;6.968;2023-01-30T01:17:48;101334.31;;;11.37;50.26
18784;BME280;9520;50.954;6.968;2023-01-30T01:18:11;101334.34;;;11.34;50.38
18784;BME280;9520;50.954;6.968;2023-01-30T01:18:33;101348.34;;;11.42;50.18
18784;BME280;9520;50.954;6.968;2023-01-30T01:18:55;101343.03;;;11.45;50.14
18784;BME280;9520;50.954;6.968;2023-01-30T01:19:17;101346.53;;;11.49;49.92
18784;BME280;9520;50.954;6.968;2023-01-30T01:19:41;101344.75;;;11.51;49.81
18784;BME280;9520;50.954;6.968;2023-01-30T01:20:04;101345.75;;;11.36;49.94
18784;BME280;9520;50.954;6.968;2023-01-30T01:20:26;101345.84;;;11.21;50.44
18784;BME280;9520;50.954;6.968;2023-01-30T01:20:48;101337.97;;;11.18;50.57
18784;BME280;9520;50.954;6.968;2023-01-30T01:21:10;101338.06;;;11.04;50.92
18784;BME280;9520;50.954;6.968;2023-01-30T01:21:33;101346.84;;;11.09;50.92
18784;BME280;9520;50.954;6.968;2023-01-30T01:21:55;101346.81;;;11.12;50.71
18784;BME280;9520;50.954;6.968;2023-01-30T01:22:16;101335.38;;;11.10;50.71
18784;BME280;9520;50.954;6.968;2023-01-30T01:22:39;101333.59;;;11.11;50.84
18784;BME280;9520;50.954;6.968;2023-01-30T01:23:02;101332.69;;;11.19;50.72
18784;BME280;9520;50.954;6.968;2023-01-30T01:23:24;101335.28;;;11.24;50.66
18784;BME280;9520;50.954;6.968;2023-01-30T01:23:48;101329.97;;;11.29;50.57
18784;BME280;9520;50.954;6.968;2023-01-30T01:24:13;101329.06;;;11.34;50.28
18784;BME280;9520;50.954;6.968;2023-01-30T01:24:35;101328.09;;;11.41;50.30
18784;BME280;9520;50.954;6.968;2023-01-30T01:24:57;101335.22;;;11.33;50.40
18784;BME280;9520;50.954;6.968;2023-01-30T01:25:19;101324.81;;;11.15;50.62
18784;BME280;9520;50.954;6.968;2023-01-30T01:25:42;101330.91;;;11.23;50.61
18784;BME280;9520;50.954;6.968;2023-01-30T01:26:04;101325.56;;;11.27;50.49
18784;BME280;9520;50.954;6.968;2023-01-30T01:26:28;101322.84;;;11.37;50.44
18784;BME280;9520;50.954;6.968;2023-01-30T01:26:50;101326.38;;;11.39;50.21
18784;BME280;9520;50.954;6.968;2023-01-30T01:27:12;101325.50;;;11.37;50.27
18784;BME280;9520;50.954;6.968;2023-01-30T01:27:34;101322.00;;;11.35;50.25
18784;BME280;9520;50.954;6.968;2023-01-30T01:27:56;101317.66;;;11.29;50.30
18784;BME280;9520;50.954;6.968;2023-01-30T01:28:18;101322.88;;;11.35;50.30
18784;BME280;9520;50.954;6.968;2023-01-30T01:28:42;101316.66;;;11.41;50.20
18784;BME280;9520;50.954;6.968;2023-01-30T01:29:04;101320.19;;;11.43;50.17
18784;BME280;9520;50.954;6.968;2023-01-30T01:29:26;101313.09;;;11.48;50.06
18784;BME280;9520;50.954;6.968;2023-01-30T01:29:51;101318.28;;;11.55;49.91
18784;BME280;9520;50.954;6.968;2023-01-30T01:30:13;101317.41;;;11.56;49.87
18784;BME280;9520;50.954;6.968;2023-01-30T01:30:37;101316.53;;;11.57;49.97
18784;BME280;9520;50.954;6.968;2023-01-30T01:30:58;101318.25;;;11.60;49.72
18784;BME280;9520;50.954;6.968;2023-01-30T01:31:46;101319.06;;;11.66;49.51
18784;BME280;9520;50.954;6.968;2023-01-30T01:32:09;101319.97;;;11.67;49.54
18784;BME280;9520;50.954;6.968;2023-01-30T01:32:31;101318.19;;;11.66;49.48
18784;BME280;9520;50.954;6.968;2023-01-30T01:32:53;101318.19;;;11.66;49.48
18784;BME280;9520;50.954;6.968;2023-01-30T01:33:15;101318.25;;;11.60;49.52
18784;BME280;9520;50.954;6.968;2023-01-30T01:33:37;101320.88;;;11.61;49.71
18784;BME280;9520;50.954;6.968;2023-01-30T01:33:58;101333.22;;;11.59;49.66
18784;BME280;9520;50.954;6.968;2023-01-30T01:34:20;101333.16;;;11.67;49.56
18784;BME280;9520;50.954;6.968;2023-01-30T01:34:43;101326.97;;;11.69;49.47
18784;BME280;9520;50.954;6.968;2023-01-30T01:35:06;101329.63;;;11.73;49.34
18784;BME280;9520;50.954;6.968;2023-01-30T01:35:28;101326.94;;;11.76;49.37
18784;BME280;9520;50.954;6.968;2023-01-30T01:35:50;101318.19;;;11.74;49.17
18784;BME280;9520;50.954;6.968;2023-01-30T01:36:11;101318.97;;;11.83;49.19
18784;BME280;9520;50.954;6.968;2023-01-30T01:36:49;101319.06;;;11.74;49.28
18784;BME280;9520;50.954;6.968;2023-01-30T01:37:15;101313.72;;;11.77;49.22
18784;BME280;9520;50.954;6.968;2023-01-30T01:37:37;101320.78;;;11.78;49.20
18784;BME280;9520;50.954;6.968;2023-01-30T01:37:58;101316.41;;;11.74;49.20
18784;BME280;9520;50.954;6.968;2023-01-30T01:38:20;101316.38;;;11.69;49.25
18784;BME280;9520;50.954;6.968;2023-01-30T01:38:45;101311.19;;;11.62;49.49
18784;BME280;9520;50.954;6.968;2023-01-30T01:39:07;101310.41;;;11.52;49.79
18784;BME280;9520;50.954;6.968;2023-01-30T01:39:28;101307.84;;;11.43;49.87
18784;BME280;9520;50.954;6.968;2023-01-30T01:40:16;101310.53;;;11.37;50.19
18784;BME280;9520;50.954;6.968;2023-01-30T01:40:57;101311.53;;;11.24;50.47
18784;BME280;9520;50.954;6.968;2023-01-30T01:41:28;101309.66;;;11.37;50.38
18784;BME280;9520;50.954;6.968;2023-01-30T01:41:50;101306.97;;;11.41;50.24
18784;BME280;9520;50.954;6.968;2023-01-30T01:42:13;101315.81;;;11.37;50.21
18784;BME280;9520;50.954;6.968;2023-01-30T01:42:37;101309.63;;;11.41;50.28
18784;BME280;9520;50.954;6.968;2023-01-30T01:42:59;101310.44;;;11.48;50.10
18784;BME280;9520;50.954;6.968;2023-01-30T01:43:23;101310.41;;;11.52;50.04
18784;BME280;9520;50.954;6.968;2023-01-30T01:44:01;101307.81;;;11.49;49.92
18784;BME280;9520;50.954;6.968;2023-01-30T01:44:29;101300.72;;;11.50;49.89
18784;BME280;9520;50.954;6.968;2023-01-30T01:45:16;101299.94;;;11.40;50.13
18784;BME280;9520;50.954;6.968;2023-01-30T01:45:41;101294.66;;;11.42;50.07
18784;BME280;9520;50.954;6.968;2023-01-30T01:46:08;101300.00;;;11.31;50.04
18784;BME280;9520;50.954;6.968;2023-01-30T01:46:37;101294.69;;;11.39;50.26
18784;BME280;9520;50.954;6.968;2023-01-30T01:47:05;101311.50;;;11.27;50.43
18784;BME280;9520;50.954;6.968;2023-01-30T01:47:31;101300.13;;;11.16;50.75
18784;BME280;9520;50.954;6.968;2023-01-30T01:47:59;101296.66;;;11.14;50.79
18784;BME280;9520;50.954;6.968;2023-01-30T01:48:27;101308.88;;;11.24;50.71
18784;BME280;9520;50.954;6.968;2023-01-30T01:48:53;101298.34;;;11.22;50.57
18784;BME280;9520;50.954;6.968;2023-01-30T01:49:22;101302.69;;;11.26;50.63
18784;BME280;9520;50.954;6.968;2023-01-30T01:49:51;101294.88;;;11.13;50.91
18784;BME280;9520;50.954;6.968;2023-01-30T01:50:19;101308.00;;;11.20;50.86
18784;BME280;9520;50.954;6.968;2023-01-30T01:50:45;101300.94;;;11.25;50.70
18784;BME280;9520;50.954;6.968;2023-01-30T01:51:14;101294.69;;;11.36;50.47
18784;BME280;9520;50.954;6.968;2023-01-30T01:51:40;101285.03;;;11.32;50.32
18784;BME280;9520;50.954;6.968;2023-01-30T01:52:07;101292.94;;;11.38;50.47
18784;BME280;9520;50.954;6.968;2023-01-30T01:52:31;101298.16;;;11.44;50.19
18784;BME280;9520;50.954;6.968;2023-01-30T01:52:55;101291.13;;;11.43;50.24
18784;BME280;9520;50.954;6.968;2023-01-30T01:53:20;101285.88;;;11.38;50.25
18784;BME280;9520;50.954;6.968;2023-01-30T01:53:50;101290.25;;;11.44;50.35
18784;BME280;9520;50.954;6.968;2023-01-30T01:54:15;101293.75;;;11.44;50.13
18784;BME280;9520;50.954;6.968;2023-01-30T01:54:41;101301.66;;;11.46;50.12
18784;BME280;9520;50.954;6.968;2023-01-30T01:55:06;101286.66;;;11.49;50.03
18784;BME280;9520;50.954;6.968;2023-01-30T01:55:28;101298.06;;;11.53;49.84
18784;BME280;9520;50.954;6.968;2023-01-30T01:55:53;101297.09;;;11.61;49.74
18784;BME280;9520;50.954;6.968;2023-01-30T01:56:17;101300.56;;;11.68;49.65
18784;BME280;9520;50.954;6.968;2023-01-30T01:56:42;101296.13;;;11.72;49.58
18784;BME280;9520;50.954;6.968;2023-01-30T01:57:13;101299.59;;;11.80;49.44
18784;BME280;9520;50.954;6.968;2023-01-30T01:57:39;101289.91;;;11.80;49.22
18784;BME280;9520;50.954;6.968;2023-01-30T01:58:06;101297.00;;;11.75;49.46
18784;BME280;9520;50.954;6.968;2023-01-30T01:58:34;101278.44;;;11.80;49.30
18784;BME280;9520;50.954;6.968;2023-01-30T01:59:01;101286.31;;;11.84;49.14
18784;BME280;9520;50.954;6.968;2023-01-30T01:59:29;101280.38;;;11.64;49.46
18784;BME280;9520;50.954;6.968;2023-01-30T01:59:58;101284.03;;;11.45;49.92
18784;BME280;9520;50.954;6.968;2023-01-30T02:00:33;101273.50;;;11.43;50.05
18784;BME280;9520;50.954;6.968;2023-01-30T02:00:57;101287.56;;;11.47;50.01
18784;BME280;9520;50.954;6.968;2023-01-30T02:01:19;101278.00;;;11.34;50.15
18784;BME280;9520;50.954;6.968;2023-01-30T02:01:43;101288.44;;;11.46;50.19
18784;BME280;9520;50.954;6.968;2023-01-30T02:02:06;101277.91;;;11.40;50.15
18784;BME280;9520;50.954;6.968;2023-01-30T02:02:29;101287.66;;;11.38;50.48
18784;BME280;9520;50.954;6.968;2023-01-30T02:02:54;101286.69;;;11.46;50.21
18784;BME280;9520;50.954;6.968;2023-01-30T02:03:21;101284.97;;;11.41;50.24
18784;BME280;9520;50.954;6.968;2023-01-30T02:03:48;101287.59;;;11.44;50.24
18784;BME280;9520;50.954;6.968;2023-01-30T02:04:11;101284.03;;;11.48;49.94
18784;BME280;9520;50.954;6.968;2023-01-30T02:04:40;101278.72;;;11.51;50.02
18784;BME280;9520;50.954;6.968;2023-01-30T02:05:26;101274.44;;;11.38;50.34
18784;BME280;9520;50.954;6.968;2023-01-30T02:05:55;101271.78;;;11.39;50.30
18784;BME280;9520;50.954;6.968;2023-01-30T02:06:18;101273.50;;;11.43;50.11
18784;BME280;9520;50.954;6.968;2023-01-30T02:06:42;101272.63;;;11.43;50.26
18784;BME280;9520;50.954;6.968;2023-01-30T02:07:04;101268.19;;;11.45;50.24
18784;BME280;9520;50.954;6.968;2023-01-30T02:07:28;101276.16;;;11.42;50.25
18784;BME280;9520;50.954;6.968;2023-01-30T02:07:59;101264.66;;;11.46;50.15